Time;durP1;ratioP1;P1;durP2;ratioP2;P2;SDS_P1;SDS_P2;PMS_P1;PMS_P2;Temp;Humidity;BMP_temperature;BMP_pressure;BME280_temperature;BME280_humidity;BME280_pressure;Samples;Min_cycle;Max_cycle;Signal;HPM_P1;HPM_P2
2023/03/04 00:00:27;;;;;;;13.02;5.85;;;;;;;3.18;100.00;101306.09;5118068;29;20512;-77
2023/03/04 00:02:57;;;;;;;17.35;6.35;;;;;;;3.16;100.00;101297.47;5117401;29;20035;-77
2023/03/04 00:05:29;;;;;;;15.68;5.65;;;;;;;3.29;100.00;101302.72;5118154;28;20046;-77
2023/03/04 00:08:00;;;;;;;14.05;5.53;;;;;;;3.18;100.00;101300.91;5109132;28;20122;-77
2023/03/04 00:10:30;;;;;;;16.95;5.45;;;;;;;3.18;100.00;101291.44;5119565;28;20192;-77
2023/03/04 00:13:00;;;;;;;15.63;5.03;;;;;;;3.23;100.00;101301.81;5117356;29;20031;-78
2023/03/04 00:15:31;;;;;;;18.65;5.35;;;;;;;3.28;100.00;101300.09;5116637;29;20397;-78
2023/03/04 00:18:01;;;;;;;20.35;5.05;;;;;;;3.33;100.00;101299.28;5116645;29;20039;-77
2023/03/04 00:20:31;;;;;;;14.10;5.55;;;;;;;3.30;100.00;101298.38;5116914;29;20667;-77
2023/03/04 00:23:01;;;;;;;18.15;5.55;;;;;;;3.38;100.00;101302.72;5122919;28;20242;-77
2023/03/04 00:25:32;;;;;;;14.00;5.18;;;;;;;3.38;100.00;101299.31;5100994;28;20210;-78
2023/03/04 00:28:03;;;;;;;17.92;5.20;;;;;;;3.28;100.00;101297.50;5115738;28;20031;-77
2023/03/04 00:30:33;;;;;;;18.33;5.10;;;;;;;3.37;100.00;101297.56;5117085;29;20160;-78
2023/03/04 00:33:03;;;;;;;14.38;5.07;;;;;;;3.43;100.00;101295.00;5116882;29;20122;-77
2023/03/04 00:35:34;;;;;;;14.52;4.80;;;;;;;3.46;100.00;101289.84;5120610;28;20343;-78
2023/03/04 00:38:04;;;;;;;17.70;4.40;;;;;;;3.44;100.00;101291.56;5108963;28;20039;-78
2023/03/04 00:40:35;;;;;;;20.23;4.13;;;;;;;3.60;100.00;101291.66;5116429;28;20279;-77
2023/03/04 00:43:05;;;;;;;19.65;4.05;;;;;;;3.59;100.00;101277.84;5097889;29;20565;-77
2023/03/04 00:45:35;;;;;;;14.57;3.83;;;;;;;3.63;100.00;101279.59;5116006;29;20063;-78
2023/03/04 00:48:05;;;;;;;17.05;4.30;;;;;;;3.62;100.00;101271.84;5116961;28;20027;-78
2023/03/04 00:50:36;;;;;;;10.88;3.25;;;;;;;3.62;100.00;101270.13;5118201;29;20031;-77
2023/03/04 00:53:06;;;;;;;14.80;3.40;;;;;;;3.76;100.00;101265.84;5120440;29;20493;-77
2023/03/04 00:55:37;;;;;;;23.65;3.70;;;;;;;3.81;100.00;101261.53;5119962;29;20347;-77
2023/03/04 00:58:07;;;;;;;10.57;2.83;;;;;;;3.75;100.00;101269.31;5119107;29;20035;-77
2023/03/04 01:00:37;;;;;;;14.32;2.58;;;;;;;3.82;100.00;101259.84;5120591;29;20115;-77
2023/03/04 01:03:08;;;;;;;17.13;3.30;;;;;;;3.87;100.00;101258.13;5102974;29;20780;-78
2023/03/04 01:05:38;;;;;;;15.70;3.47;;;;;;;3.86;100.00;101252.09;5120931;28;20122;-78
2023/03/04 01:08:09;;;;;;;13.82;3.50;;;;;;;3.96;100.00;101255.56;5106828;28;20565;-78
2023/03/04 01:10:39;;;;;;;18.13;3.05;;;;;;;4.00;100.00;101254.72;5119290;28;20031;-77
2023/03/04 01:13:09;;;;;;;14.00;2.97;;;;;;;4.06;100.00;101257.28;5120798;28;20378;-77
2023/03/04 01:15:40;;;;;;;14.65;3.03;;;;;;;4.08;100.00;101247.81;5119091;28;20038;-75
2023/03/04 01:18:10;;;;;;;13.60;3.00;;;;;;;4.10;100.00;101246.97;5120268;29;20473;-75
2023/03/04 01:20:40;;;;;;;9.30;2.50;;;;;;;4.14;100.00;101238.34;5120862;28;20079;-76
2023/03/04 01:23:10;;;;;;;13.23;2.92;;;;;;;4.15;100.00;101239.22;5118456;29;20031;-72
2023/03/04 01:25:41;;;;;;;11.75;2.58;;;;;;;4.11;100.00;101242.66;5118788;29;20034;-75
2023/03/04 01:28:11;;;;;;;16.48;3.05;;;;;;;4.22;100.00;101241.81;5119474;29;20394;-75
2023/03/04 01:30:41;;;;;;;19.25;2.80;;;;;;;4.14;100.00;101238.34;5102548;29;20513;-77
2023/03/04 01:33:12;;;;;;;12.15;2.53;;;;;;;4.17;100.00;101238.38;5118922;29;20030;-74
2023/03/04 01:35:42;;;;;;;18.20;3.15;;;;;;;4.26;100.00;101233.19;5119749;28;20019;-75
2023/03/04 01:38:13;;;;;;;11.75;2.67;;;;;;;4.25;100.00;101230.56;5117558;28;20058;-75
2023/03/04 01:40:43;;;;;;;16.02;2.78;;;;;;;4.26;100.00;101222.84;5120814;28;20039;-75
2023/03/04 01:43:19;;;;;;;18.83;3.55;;;;;;;4.22;100.00;101217.66;5116267;28;20448;-75
2023/03/04 01:45:51;;;;;;;12.80;2.67;;;;;;;4.21;100.00;101214.22;5119139;29;20401;-72
2023/03/04 01:48:27;;;;;;;10.90;2.50;;;;;;;4.33;100.00;101206.44;5101916;29;20138;-75
2023/03/04 01:50:58;;;;;;;10.68;2.63;;;;;;;4.30;100.00;101198.69;5101922;29;20031;-76
2023/03/04 01:53:30;;;;;;;11.23;2.25;;;;;;;4.37;100.00;101196.97;5118205;29;20563;-75
2023/03/04 01:56:08;;;;;;;12.43;2.80;;;;;;;4.36;100.00;101185.75;5119184;29;20409;-75
2023/03/04 01:58:38;;;;;;;13.20;2.80;;;;;;;4.34;100.00;101184.91;5101435;29;20543;-75
2023/03/04 02:01:13;;;;;;;11.00;2.85;;;;;;;4.28;100.00;101181.47;5118281;28;20337;-76
2023/03/04 02:03:43;;;;;;;13.27;2.63;;;;;;;4.37;100.00;101184.91;5113218;29;20038;-75
2023/03/04 02:06:14;;;;;;;10.52;3.00;;;;;;;4.36;100.00;101175.41;5122911;28;20022;-75
2023/03/04 02:08:44;;;;;;;21.08;2.95;;;;;;;4.38;100.00;101180.56;5108344;28;20082;-75
2023/03/04 02:11:15;;;;;;;17.20;3.15;;;;;;;4.38;100.00;101181.44;5132259;28;20519;-75
2023/03/04 02:13:45;;;;;;;16.00;2.88;;;;;;;4.43;100.00;101174.53;5109829;28;20031;-76
2023/03/04 02:16:15;;;;;;;14.02;3.17;;;;;;;4.38;100.00;101173.69;5107400;29;20253;-75
2023/03/04 02:18:46;;;;;;;13.32;2.55;;;;;;;4.41;100.00;101165.03;5110946;28;20027;-75
2023/03/04 02:21:24;;;;;;;16.63;2.15;;;;;;;4.41;100.00;101170.22;5094139;29;20505;-75
2023/03/04 02:24:14;;;;;;;15.15;2.63;;;;;;;4.35;100.00;101160.75;5107409;29;20062;-75
2023/03/04 02:26:45;;;;;;;11.50;2.38;;;;;;;4.42;100.00;101157.28;5106928;29;20098;-75
2023/03/04 02:29:16;;;;;;;15.45;2.60;;;;;;;4.40;100.00;101155.56;5117864;29;20111;-75
2023/03/04 02:31:49;;;;;;;13.70;2.40;;;;;;;4.41;100.00;101150.38;5117634;29;20043;-75
2023/03/04 02:34:24;;;;;;;18.30;2.85;;;;;;;4.44;100.00;101155.56;5117916;28;20023;-74
2023/03/04 02:36:55;;;;;;;10.75;2.55;;;;;;;4.47;100.00;101152.94;5122281;28;20030;-75
2023/03/04 02:39:34;;;;;;;24.30;3.17;;;;;;;4.50;100.00;101147.75;5121599;28;20058;-75
2023/03/04 02:42:05;;;;;;;12.43;2.58;;;;;;;4.47;100.00;101141.75;5104300;28;20367;-75
2023/03/04 02:44:38;;;;;;;19.15;3.00;;;;;;;4.44;100.00;101149.53;5105717;28;20038;-75
2023/03/04 02:47:10;;;;;;;16.63;3.25;;;;;;;4.41;100.00;101150.38;5109600;29;20031;-76
2023/03/04 02:49:40;;;;;;;10.27;2.35;;;;;;;4.52;100.00;101146.06;5114173;28;20409;-75
2023/03/04 02:52:21;;;;;;;16.08;2.83;;;;;;;4.50;100.00;101134.81;5116326;29;20038;-76
2023/03/04 02:54:51;;;;;;;14.23;2.97;;;;;;;4.43;100.00;101130.53;5109486;29;20405;-75
2023/03/04 02:57:21;;;;;;;12.98;2.55;;;;;;;4.56;100.00;101133.94;5109431;29;20026;-75
2023/03/04 02:59:51;;;;;;;15.65;2.60;;;;;;;4.48;100.00;101135.72;5110130;29;20053;-75
2023/03/04 03:02:22;;;;;;;13.93;2.47;;;;;;;4.49;100.00;101127.94;5112707;29;20122;-75
2023/03/04 03:04:52;;;;;;;10.32;2.92;;;;;;;4.53;100.00;101140.03;5106010;28;20031;-76
2023/03/04 03:07:22;;;;;;;9.70;2.40;;;;;;;4.40;100.00;101137.44;5125792;28;20046;-74
2023/03/04 03:09:53;;;;;;;15.15;2.92;;;;;;;4.47;100.00;101129.66;5124198;28;20481;-76
2023/03/04 03:12:23;;;;;;;11.57;2.40;;;;;;;4.58;100.00;101130.50;5119961;28;20058;-75
2023/03/04 03:14:54;;;;;;;12.45;2.63;;;;;;;4.50;100.00;101124.47;5112802;28;20137;-72
2023/03/04 03:17:25;;;;;;;11.77;2.17;;;;;;;4.55;100.00;101116.72;5110853;28;20261;-75
2023/03/04 03:19:55;;;;;;;9.82;2.22;;;;;;;4.62;100.00;101127.03;5114256;28;20027;-75
2023/03/04 03:22:25;;;;;;;14.70;2.38;;;;;;;4.64;100.00;101117.53;5116309;28;20074;-76
2023/03/04 03:24:56;;;;;;;12.32;2.50;;;;;;;4.59;100.00;101118.41;5105836;28;20063;-76
2023/03/04 03:27:26;;;;;;;13.77;2.38;;;;;;;4.49;100.00;101112.41;5116958;28;20065;-74
2023/03/04 03:29:57;;;;;;;10.80;2.22;;;;;;;4.49;100.00;101120.16;5117422;29;20366;-75
2023/03/04 03:32:27;;;;;;;12.90;2.80;;;;;;;4.57;100.00;101125.31;5117114;29;20543;-75
2023/03/04 03:34:57;;;;;;;13.80;2.67;;;;;;;4.50;100.00;101119.31;5117035;29;20413;-76
2023/03/04 03:37:27;;;;;;;12.80;2.30;;;;;;;4.54;100.00;101120.16;5125190;28;20505;-75
2023/03/04 03:39:58;;;;;;;10.13;2.30;;;;;;;4.53;100.00;101121.03;5120262;28;20093;-75
2023/03/04 03:42:28;;;;;;;14.20;2.25;;;;;;;4.63;100.00;101115.81;5124166;28;20035;-76
2023/03/04 03:44:58;;;;;;;10.90;2.38;;;;;;;4.52;100.00;101117.59;5116757;29;20023;-76
2023/03/04 03:47:29;;;;;;;12.82;2.40;;;;;;;4.57;100.00;101118.44;5116732;29;20066;-75
2023/03/04 03:49:59;;;;;;;12.15;2.85;;;;;;;4.51;100.00;101113.28;5117801;29;20027;-76
2023/03/04 03:52:29;;;;;;;8.75;2.50;;;;;;;4.52;100.00;101117.59;5116347;29;20098;-75
2023/03/04 03:55:00;;;;;;;21.35;2.60;;;;;;;4.58;100.00;101109.81;5116587;29;20031;-76
2023/03/04 03:57:31;;;;;;;10.05;2.33;;;;;;;4.58;100.00;101112.41;5116583;29;20030;-75
2023/03/04 04:00:03;;;;;;;5.47;2.35;;;;;;;4.58;100.00;101106.34;5117105;29;20027;-75
2023/03/04 04:02:33;;;;;;;11.75;2.17;;;;;;;4.66;100.00;101105.44;5117066;29;20027;-75
2023/03/04 04:05:04;;;;;;;17.63;2.47;;;;;;;4.68;100.00;101105.47;5117237;29;20363;-76
2023/03/04 04:07:35;;;;;;;14.68;2.40;;;;;;;4.48;100.00;101104.66;5120797;28;20045;-75
2023/03/04 04:10:06;;;;;;;7.95;2.50;;;;;;;4.57;100.00;101102.91;5123641;28;20023;-76
2023/03/04 04:12:36;;;;;;;9.05;2.00;;;;;;;4.71;100.00;101093.38;5118769;28;20035;-75
2023/03/04 04:15:09;;;;;;;13.55;2.05;;;;;;;4.69;100.00;101100.28;5115292;29;20039;-76
2023/03/04 04:17:39;;;;;;;11.32;2.10;;;;;;;4.66;100.00;101100.28;5117083;29;20516;-75
2023/03/04 04:20:10;;;;;;;11.40;2.17;;;;;;;4.59;100.00;101088.22;5117574;29;20254;-76
2023/03/04 04:22:40;;;;;;;11.45;1.90;;;;;;;4.62;100.00;101088.22;5099660;28;20047;-75
2023/03/04 04:25:11;;;;;;;9.27;1.52;;;;;;;4.68;100.00;101092.50;5118094;29;20049;-75
2023/03/04 04:27:41;;;;;;;10.25;1.40;;;;;;;4.56;100.00;101085.66;5119983;29;20106;-75
2023/03/04 04:30:12;;;;;;;6.97;1.67;;;;;;;4.57;100.00;101084.78;5091602;28;20031;-75
2023/03/04 04:32:43;;;;;;;5.75;1.70;;;;;;;4.63;100.00;101086.50;5120258;29;20035;-76
2023/03/04 04:35:13;;;;;;;10.10;1.80;;;;;;;4.56;100.00;101088.25;5121417;28;20263;-75
2023/03/04 04:37:44;;;;;;;8.00;1.92;;;;;;;4.56;100.00;101084.78;5119757;28;20027;-76
2023/03/04 04:40:15;;;;;;;12.98;1.90;;;;;;;4.55;100.00;101089.13;5124441;28;20181;-75
2023/03/04 04:42:45;;;;;;;6.95;1.58;;;;;;;4.65;100.00;101088.19;5120978;28;20094;-75
2023/03/04 04:45:16;;;;;;;9.90;2.00;;;;;;;4.57;100.00;101083.91;5119670;29;20035;-75
2023/03/04 04:47:46;;;;;;;10.98;1.70;;;;;;;4.52;100.00;101081.38;5120199;29;20055;-75
2023/03/04 04:50:17;;;;;;;7.13;1.45;;;;;;;4.62;100.00;101075.28;5095985;28;20114;-75
2023/03/04 04:52:47;;;;;;;9.55;1.70;;;;;;;4.60;100.00;101084.78;5101190;29;20046;-75
2023/03/04 04:55:18;;;;;;;12.50;1.70;;;;;;;4.51;100.00;101071.88;5118836;29;20031;-77
2023/03/04 04:57:48;;;;;;;7.70;1.20;;;;;;;4.52;100.00;101076.19;5120252;29;20031;-76
2023/03/04 05:00:19;;;;;;;9.43;1.40;;;;;;;4.53;100.00;101080.50;5120291;29;20067;-75
2023/03/04 05:02:49;;;;;;;5.85;1.60;;;;;;;4.59;100.00;101071.81;5118980;29;20020;-75
2023/03/04 05:05:19;;;;;;;6.47;1.70;;;;;;;4.50;100.00;101072.72;5104436;28;20027;-76
2023/03/04 05:07:49;;;;;;;7.72;1.65;;;;;;;4.59;100.00;101077.88;5126624;28;20026;-75
2023/03/04 05:10:20;;;;;;;6.97;1.25;;;;;;;4.66;100.00;101078.72;5128739;28;20385;-75
2023/03/04 05:12:50;;;;;;;4.03;1.10;;;;;;;4.55;100.00;101076.19;5119862;28;20035;-75
2023/03/04 05:15:20;;;;;;;6.15;1.52;;;;;;;4.59;100.00;101067.53;5119796;29;20031;-76
2023/03/04 05:17:51;;;;;;;11.15;1.55;;;;;;;4.58;100.00;101075.28;5119855;29;20525;-75
2023/03/04 05:20:22;;;;;;;6.65;1.52;;;;;;;4.51;100.00;101069.31;5103137;29;20035;-76
2023/03/04 05:22:53;;;;;;;5.82;1.40;;;;;;;4.54;100.00;101071.00;5119156;29;20524;-75
2023/03/04 05:25:23;;;;;;;9.48;1.58;;;;;;;4.62;100.00;101071.84;5119201;29;20201;-75
2023/03/04 05:27:53;;;;;;;7.05;1.30;;;;;;;4.63;100.00;101069.22;5119918;29;20023;-75
2023/03/04 05:30:24;;;;;;;5.78;1.33;;;;;;;4.59;100.00;101070.13;5099185;29;20028;-75
2023/03/04 05:32:54;;;;;;;12.32;2.05;;;;;;;4.53;100.00;101064.09;5118998;29;20512;-75
2023/03/04 05:35:24;;;;;;;5.55;1.50;;;;;;;4.47;100.00;101061.53;5121942;28;20081;-77
2023/03/04 05:37:55;;;;;;;13.23;1.95;;;;;;;4.50;100.00;101061.53;5125696;28;20027;-75
2023/03/04 05:40:25;;;;;;;8.88;1.63;;;;;;;4.54;100.00;101061.53;5110894;28;20061;-75
2023/03/04 05:42:55;;;;;;;5.47;1.38;;;;;;;4.46;100.00;101055.50;5102419;29;20030;-75
2023/03/04 05:45:26;;;;;;;7.63;1.60;;;;;;;4.50;100.00;101052.03;5118763;29;20510;-76
2023/03/04 05:47:56;;;;;;;9.68;1.80;;;;;;;4.55;100.00;101055.47;5119115;29;20106;-76
2023/03/04 05:50:26;;;;;;;11.02;1.52;;;;;;;4.52;100.00;101060.66;5119532;29;20032;-75
2023/03/04 05:52:57;;;;;;;6.50;1.65;;;;;;;4.55;100.00;101054.59;5118426;29;20114;-75
2023/03/04 05:55:28;;;;;;;6.15;1.83;;;;;;;4.46;100.00;101065.84;5119374;29;20027;-75
2023/03/04 05:57:59;;;;;;;7.50;1.60;;;;;;;4.52;100.00;101070.13;5118801;29;20027;-75
2023/03/04 06:00:29;;;;;;;8.70;1.50;;;;;;;4.51;100.00;101069.31;5119751;29;20030;-75
2023/03/04 06:02:59;;;;;;;5.13;1.60;;;;;;;4.47;100.00;101075.31;5118759;29;20448;-75
2023/03/04 06:05:29;;;;;;;9.23;1.75;;;;;;;4.54;100.00;101063.22;5121550;28;20042;-75
2023/03/04 06:08:00;;;;;;;6.75;1.75;;;;;;;4.49;100.00;101071.00;5128212;28;20110;-75
2023/03/04 06:10:30;;;;;;;7.57;1.48;;;;;;;4.39;100.00;101068.44;5127642;28;20034;-75
2023/03/04 06:13:00;;;;;;;16.13;1.98;;;;;;;4.45;100.00;101066.72;5119276;28;20493;-76
2023/03/04 06:15:31;;;;;;;7.18;1.58;;;;;;;4.28;100.00;101070.22;5118736;29;20031;-76
2023/03/04 06:18:02;;;;;;;7.32;1.70;;;;;;;4.38;100.00;101066.72;5117484;29;20082;-75
2023/03/04 06:20:32;;;;;;;8.65;1.77;;;;;;;4.25;100.00;101071.09;5118424;29;20035;-75
2023/03/04 06:23:03;;;;;;;16.95;1.85;;;;;;;4.30;100.00;101061.56;5118375;29;20035;-75
2023/03/04 06:25:33;;;;;;;5.70;1.38;;;;;;;4.38;100.00;101066.72;5117086;29;20027;-76
2023/03/04 06:28:04;;;;;;;11.13;1.60;;;;;;;4.34;100.00;101067.59;5116590;29;20054;-76
2023/03/04 06:30:34;;;;;;;16.67;2.20;;;;;;;4.38;100.00;101061.56;5116750;29;20356;-76
2023/03/04 06:33:04;;;;;;;6.70;1.40;;;;;;;4.28;100.00;101060.72;5101002;29;20485;-75
2023/03/04 06:35:35;;;;;;;9.65;1.90;;;;;;;4.35;100.00;101066.75;5121652;28;20085;-76
2023/03/04 06:38:05;;;;;;;5.45;1.50;;;;;;;4.37;100.00;101070.19;5124033;28;20515;-76
2023/03/04 06:40:35;;;;;;;6.65;1.20;;;;;;;4.40;100.00;101071.03;5118211;28;20055;-76
2023/03/04 06:43:06;;;;;;;6.05;1.48;;;;;;;4.26;100.00;101074.53;5117407;28;20033;-75
2023/03/04 06:45:38;;;;;;;12.50;1.67;;;;;;;4.35;100.00;101075.38;5117911;29;20054;-75
2023/03/04 06:48:08;;;;;;;6.85;1.63;;;;;;;4.30;100.00;101079.69;5113498;28;20070;-75
2023/03/04 06:50:39;;;;;;;3.42;1.52;;;;;;;4.26;100.00;101074.53;5116763;29;20067;-75
2023/03/04 06:53:10;;;;;;;5.38;1.58;;;;;;;4.40;100.00;101072.75;5117655;29;20106;-76
2023/03/04 06:55:40;;;;;;;7.88;1.95;;;;;;;4.31;100.00;101073.63;5100243;29;20394;-75
2023/03/04 06:58:10;;;;;;;7.82;1.80;;;;;;;4.26;100.00;101075.38;5117802;29;20047;-75
2023/03/04 07:00:40;;;;;;;9.30;2.15;;;;;;;4.33;100.00;101082.25;5118361;29;20551;-75
2023/03/04 07:03:11;;;;;;;7.30;1.77;;;;;;;4.34;100.00;101076.25;5118073;29;20108;-74
2023/03/04 07:05:42;;;;;;;10.20;1.58;;;;;;;4.45;100.00;101074.47;5119363;28;20288;-75
2023/03/04 07:08:12;;;;;;;8.02;1.73;;;;;;;4.41;100.00;101079.66;5107740;28;20151;-75
2023/03/04 07:10:43;;;;;;;7.72;1.42;;;;;;;4.44;100.00;101084.84;5146898;23;20171;-73
2023/03/04 07:13:13;;;;;;;7.72;1.42;;;;;;;4.50;100.00;101075.31;5130162;28;20133;-73
2023/03/04 07:15:43;;;;;;;6.03;1.73;;;;;;;4.50;100.00;101071.88;5108854;28;20634;-72
2023/03/04 07:18:14;;;;;;;5.85;1.58;;;;;;;4.60;100.00;101063.22;5126373;28;20477;-73
2023/03/04 07:20:44;;;;;;;10.80;1.70;;;;;;;4.52;100.00;101070.13;5127069;28;20402;-73
2023/03/04 07:23:14;;;;;;;8.13;1.40;;;;;;;4.60;100.00;101055.47;5121767;28;20025;-75
2023/03/04 07:25:45;;;;;;;15.88;1.83;;;;;;;4.66;100.00;101068.38;5140057;28;20365;-73
2023/03/04 07:28:16;;;;;;;6.82;1.30;;;;;;;4.61;100.00;101055.44;5145051;28;20112;-74
2023/03/04 07:30:46;;;;;;;9.45;1.58;;;;;;;4.60;100.00;101069.25;5146360;28;20037;-73
2023/03/04 07:33:17;;;;;;;10.75;1.70;;;;;;;4.60;100.00;101071.84;5140605;28;20042;-72
2023/03/04 07:35:47;;;;;;;7.38;1.63;;;;;;;4.57;100.00;101073.56;5145355;28;20182;-75
2023/03/04 07:38:17;;;;;;;11.05;1.42;;;;;;;4.66;100.00;101061.44;5153556;28;20320;-73
2023/03/04 07:40:55;;;;;;;6.38;1.60;;;;;;;4.74;100.00;101066.59;5148643;28;20030;-73
2023/03/04 07:43:25;;;;;;;6.07;1.45;;;;;;;4.77;100.00;101067.44;5120229;28;20058;-71
2023/03/04 07:46:00;;;;;;;6.90;1.50;;;;;;;4.76;100.00;101065.72;5148960;28;20421;-72
2023/03/04 07:48:30;;;;;;;3.37;1.27;;;;;;;4.82;100.00;101064.84;5137034;28;20030;-74
2023/03/04 07:51:02;;;;;;;6.28;2.00;;;;;;;4.90;100.00;101065.66;5128669;28;20068;-74
2023/03/04 07:53:33;;;;;;;5.07;1.40;;;;;;;4.79;100.00;101068.31;5118551;28;20118;-73
2023/03/04 07:56:04;;;;;;;11.43;1.48;;;;;;;4.75;100.00;101063.13;5136942;28;20278;-75
2023/03/04 07:58:34;;;;;;;8.00;1.65;;;;;;;4.82;100.00;101065.69;5144341;28;20062;-73
2023/03/04 08:01:15;;;;;;;9.13;1.67;;;;;;;4.75;100.00;101064.00;5145495;28;20326;-73
2023/03/04 08:03:46;;;;;;;6.15;1.73;;;;;;;4.85;100.00;101063.13;5144880;28;20030;-75
2023/03/04 08:06:19;;;;;;;3.35;1.60;;;;;;;4.87;100.00;101061.38;5149241;28;20033;-74
2023/03/04 08:08:54;;;;;;;6.38;2.40;;;;;;;4.95;100.00;101051.81;5154472;28;20058;-74
2023/03/04 08:11:25;;;;;;;10.57;2.00;;;;;;;5.01;100.00;101056.13;5142040;28;20030;-73
2023/03/04 08:13:56;;;;;;;4.85;1.55;;;;;;;5.00;100.00;101055.25;5149761;28;20034;-73
2023/03/04 08:16:26;;;;;;;7.65;2.97;;;;;;;5.00;100.00;101057.81;5149986;28;20026;-75
2023/03/04 08:18:59;;;;;;;12.30;3.63;;;;;;;4.98;100.00;101056.13;5152410;28;20037;-73
2023/03/04 08:21:30;;;;;;;15.07;5.85;;;;;;;5.04;100.00;101056.97;5147401;28;20499;-72
2023/03/04 08:24:06;;;;;;;7.95;2.20;;;;;;;5.10;100.00;101062.09;5151770;28;20056;-75
2023/03/04 08:26:41;;;;;;;8.18;2.40;;;;;;;4.96;100.00;101058.72;5151515;28;20030;-72
2023/03/04 08:29:15;;;;;;;9.82;3.33;;;;;;;5.00;100.00;101060.41;5132367;28;20798;-72
2023/03/04 08:31:46;;;;;;;20.00;5.85;;;;;;;4.94;100.00;101055.28;5149126;28;20115;-73
2023/03/04 08:34:19;;;;;;;17.80;5.40;;;;;;;4.92;100.00;101057.03;5147000;28;20035;-73
2023/03/04 08:36:49;;;;;;;10.40;3.13;;;;;;;4.97;100.00;101060.44;5149981;28;20030;-72
2023/03/04 08:39:20;;;;;;;17.20;4.95;;;;;;;5.04;100.00;101066.44;5151667;28;20477;-75
2023/03/04 08:41:50;;;;;;;9.80;2.60;;;;;;;5.08;100.00;101065.56;5153368;28;20373;-75
2023/03/04 08:44:23;;;;;;;8.93;2.33;;;;;;;5.14;100.00;101058.63;5152010;28;20030;-76
2023/03/04 08:46:54;;;;;;;11.07;2.72;;;;;;;5.21;100.00;101054.25;5145325;28;20165;-76
2023/03/04 08:49:24;;;;;;;10.73;3.97;;;;;;;5.24;100.00;101059.41;5153267;28;20518;-74
2023/03/04 08:51:55;;;;;;;10.55;3.50;;;;;;;5.32;100.00;101061.09;5133516;28;20033;-73
2023/03/04 08:54:25;;;;;;;12.93;3.17;;;;;;;5.60;100.00;101052.25;5143376;28;20033;-76
2023/03/04 08:56:55;;;;;;;9.68;3.65;;;;;;;5.97;100.00;101057.16;5135948;28;20037;-75
2023/03/04 08:59:26;;;;;;;7.22;2.60;;;;;;;5.92;100.00;101053.72;5148446;28;20526;-76
2023/03/04 09:01:56;;;;;;;10.05;3.72;;;;;;;5.97;100.00;101051.97;5148587;28;20065;-72
2023/03/04 09:04:26;;;;;;;11.52;5.00;;;;;;;5.92;100.00;101052.88;5148255;28;20115;-72
2023/03/04 09:06:57;;;;;;;8.63;2.13;;;;;;;6.01;100.00;101057.97;5143933;28;20023;-74
2023/03/04 09:09:27;;;;;;;3.38;1.40;;;;;;;6.03;100.00;101056.19;5151290;28;20027;-73
2023/03/04 09:11:58;;;;;;;6.82;2.00;;;;;;;6.08;100.00;101052.69;5154820;28;20112;-76
2023/03/04 09:14:28;;;;;;;7.80;2.20;;;;;;;6.14;100.00;101062.16;5127874;28;20113;-73
2023/03/04 09:16:58;;;;;;;8.68;1.50;;;;;;;6.10;100.00;101063.06;5139719;28;20081;-73
2023/03/04 09:19:29;;;;;;;7.00;2.13;;;;;;;6.10;100.00;101052.69;5143288;28;20030;-75
2023/03/04 09:21:59;;;;;;;5.38;1.35;;;;;;;6.21;100.00;101056.03;5135087;28;20622;-76
2023/03/04 09:24:29;;;;;;;8.07;2.00;;;;;;;6.26;100.00;101051.66;5151141;28;20030;-73
2023/03/04 09:27:00;;;;;;;5.45;1.30;;;;;;;6.27;100.00;101063.75;5143828;28;20035;-74
2023/03/04 09:29:31;;;;;;;10.73;2.13;;;;;;;6.16;100.00;101063.00;5148277;28;20436;-75
2023/03/04 09:32:02;;;;;;;8.60;2.97;;;;;;;6.11;100.00;101059.59;5148535;28;20086;-73
2023/03/04 09:34:32;;;;;;;6.15;2.60;;;;;;;6.09;100.00;101061.34;5134270;28;20255;-73
2023/03/04 09:37:02;;;;;;;8.77;1.73;;;;;;;6.10;100.00;101065.66;5146387;28;20070;-73
2023/03/04 09:39:36;;;;;;;15.13;4.15;;;;;;;6.05;100.00;101065.72;5147350;28;20175;-73
2023/03/04 09:42:09;;;;;;;17.98;4.80;;;;;;;5.96;100.00;101071.00;5146820;28;20527;-73
2023/03/04 09:44:42;;;;;;;10.50;3.30;;;;;;;6.03;100.00;101067.47;5135455;28;20042;-74
2023/03/04 09:47:17;;;;;;;11.10;3.88;;;;;;;6.13;100.00;101063.03;5141015;28;20556;-73
2023/03/04 09:49:56;;;;;;;;;;;;;;;6.16;100.00;101057.81;5142550;28;20721;-73
2023/03/04 09:52:42;;;;;;;5.88;1.75;;;;;;;6.09;100.00;101062.19;5124749;28;19924;-75
2023/03/04 09:55:15;;;;;;;;;;;;;;;6.02;100.00;101059.69;5145710;28;20035;-75
2023/03/04 09:58:03;;;;;;;7.28;1.30;;;;;;;6.07;100.00;101053.56;5146910;28;19972;-75
2023/03/04 10:00:54;;;;;;;5.53;1.85;;;;;;;6.11;100.00;101054.41;5145763;28;20046;-72
2023/03/04 10:03:41;;;;;;;5.53;1.60;;;;;;;6.07;100.00;101053.56;5118050;28;20034;-75
2023/03/04 10:06:16;;;;;;;5.03;1.85;;;;;;;6.23;100.00;101049.94;5150187;28;20523;-75
2023/03/04 10:09:18;;;;;;;5.38;1.80;;;;;;;6.11;100.00;101050.06;5153774;28;20495;-74
2023/03/04 10:12:01;;;;;;;6.13;1.50;;;;;;;6.10;100.00;101040.56;5140420;28;20034;-75
2023/03/04 10:14:37;;;;;;;5.30;1.67;;;;;;;6.00;100.00;101051.94;5131567;28;20027;-75
2023/03/04 10:17:18;;;;;;;5.85;1.73;;;;;;;5.97;100.00;101049.38;5129599;28;20519;-74
2023/03/04 10:20:00;;;;;;;6.55;1.40;;;;;;;5.92;100.00;101050.28;5150720;28;20038;-76
2023/03/04 10:22:35;;;;;;;3.53;1.35;;;;;;;5.92;100.00;101055.47;5143579;28;20036;-75
2023/03/04 10:25:30;;;;;;;7.45;2.17;;;;;;;5.95;100.00;101052.84;5147564;28;20117;-75
2023/03/04 10:28:11;;;;;;;3.78;1.70;;;;;;;6.20;100.00;101043.94;5139427;28;20034;-74
2023/03/04 10:31:18;;;;;;;3.97;1.73;;;;;;;6.39;100.00;101046.31;5151090;28;20026;-74
2023/03/04 10:33:51;;;;;;;8.30;2.08;;;;;;;6.43;100.00;101044.56;5138292;28;20094;-74
2023/03/04 10:36:28;;;;;;;8.55;1.52;;;;;;;6.37;100.00;101042.88;5142631;28;20106;-76
2023/03/04 10:39:05;;;;;;;8.48;1.33;;;;;;;6.35;100.00;101041.16;5117868;28;20030;-73
2023/03/04 10:41:41;;;;;;;4.63;1.33;;;;;;;6.26;100.00;101043.88;5125915;28;20030;-73
2023/03/04 10:44:17;;;;;;;6.22;1.25;;;;;;;6.28;100.00;101057.69;5132179;28;20397;-74
2023/03/04 10:46:49;;;;;;;4.10;1.02;;;;;;;6.17;100.00;101054.34;5119666;28;20487;-76
2023/03/04 10:49:20;;;;;;;7.35;1.33;;;;;;;6.10;100.00;101055.28;5133297;28;20548;-74
2023/03/04 10:52:00;;;;;;;5.50;1.10;;;;;;;6.08;100.00;101044.06;5121888;28;20039;-74
2023/03/04 10:54:46;;;;;;;9.88;1.73;;;;;;;6.13;100.00;101044.88;5137105;28;20029;-74
2023/03/04 10:57:24;;;;;;;9.60;1.35;;;;;;;6.21;100.00;101045.63;5137747;28;20124;-77
2023/03/04 10:59:59;;;;;;;7.53;1.83;;;;;;;6.31;100.00;101047.28;5136112;28;20046;-77
2023/03/04 11:02:38;;;;;;;5.63;1.90;;;;;;;6.42;100.00;101035.03;5127900;28;20092;-74
2023/03/04 11:05:08;;;;;;;6.85;1.58;;;;;;;6.51;100.00;101034.91;5136558;28;20039;-75
2023/03/04 11:07:43;;;;;;;7.53;1.40;;;;;;;6.51;100.00;101035.81;5145811;28;20405;-74
2023/03/04 11:10:14;;;;;;;4.82;1.50;;;;;;;6.58;100.00;101039.19;5145743;28;20034;-75
2023/03/04 11:12:57;;;;;;;10.00;1.50;;;;;;;6.57;100.00;101029.69;5141608;28;20041;-74
2023/03/04 11:15:30;;;;;;;6.57;1.40;;;;;;;6.58;100.00;101032.25;5130917;28;20030;-76
2023/03/04 11:18:05;;;;;;;5.95;1.42;;;;;;;6.61;100.00;101020.97;5117783;28;20159;-75
2023/03/04 11:20:40;;;;;;;5.28;1.25;;;;;;;6.84;100.00;101024.13;5121147;28;20053;-76
2023/03/04 11:23:16;;;;;;;7.55;1.40;;;;;;;7.05;100.00;101016.88;5128054;28;20115;-75
2023/03/04 11:26:09;;;;;;;8.43;2.40;;;;;;;7.18;100.00;101010.63;5132831;28;20038;-75
2023/03/04 11:28:49;;;;;;;13.82;1.95;;;;;;;7.21;100.00;101033.09;5138269;28;20145;-74
2023/03/04 11:31:31;;;;;;;15.43;3.78;;;;;;;7.10;100.00;101014.22;5145162;28;20096;-73
2023/03/04 11:34:24;;;;;;;8.20;1.60;;;;;;;7.13;100.00;101024.56;5142144;28;20296;-73
2023/03/04 11:37:02;;;;;;;5.85;1.20;;;;;;;7.10;100.00;101011.63;5143289;28;20019;-74
2023/03/04 11:39:55;;;;;;;12.13;2.10;;;;;;;7.10;100.00;101011.63;5143714;28;20039;-76
2023/03/04 11:42:51;;;;;;;6.03;1.20;;;;;;;6.96;100.00;101017.00;5142406;28;20068;-76
2023/03/04 11:45:52;;;;;;;6.47;1.38;;;;;;;6.90;100.00;101013.66;5146035;28;20023;-73